Time;durP1;ratioP1;P1;durP2;ratioP2;P2;SDS_P1;SDS_P2;PMS_P1;PMS_P2;Temp;Humidity;BMP_temperature;BMP_pressure;BME280_temperature;BME280_humidity;BME280_pressure;Samples;Min_cycle;Max_cycle;Signal;HPM_P1;HPM_P2
2023/08/25 00:00:43;;;;;;;;;;;23.80;70.60;;;;;;10234262;28;94530;-62
2023/08/25 00:05:44;;;;;;;;;;;23.80;70.60;;;;;;10231776;28;97369;-62
2023/08/25 00:10:50;;;;;;;;;;;23.80;70.60;;;;;;10239109;28;112534;-62
2023/08/25 00:15:52;;;;;;;;;;;23.80;71.50;;;;;;10232484;28;94943;-62
2023/08/25 00:20:53;;;;;;;;;;;23.80;70.40;;;;;;10251526;28;94469;-62
2023/08/25 00:25:55;;;;;;;;;;;23.80;70.40;;;;;;10233937;28;94375;-63
2023/08/25 00:30:57;;;;;;;;;;;23.80;70.40;;;;;;10228786;28;94468;-62
2023/08/25 00:36:02;;;;;;;;;;;23.80;70.40;;;;;;10219211;28;93540;-62
2023/08/25 00:41:03;;;;;;;;;;;23.80;70.30;;;;;;10228956;28;92813;-62
2023/08/25 00:46:05;;;;;;;;;;;23.80;70.30;;;;;;10242465;28;93918;-62
2023/08/25 00:51:08;;;;;;;;;;;23.80;70.30;;;;;;10216311;28;93399;-61
2023/08/25 00:56:13;;;;;;;;;;;23.80;70.30;;;;;;10224073;28;96604;-62
2023/08/25 01:01:17;;;;;;;;;;;23.80;70.30;;;;;;10234527;28;94035;-62
2023/08/25 01:06:20;;;;;;;;;;;23.80;70.20;;;;;;10239850;28;94413;-62
2023/08/25 01:11:43;;;;;;;;;;;23.80;70.20;;;;;;10245429;28;92579;-62
2023/08/25 01:17:04;;;;;;;;;;;23.80;70.20;;;;;;10237123;28;93386;-62
2023/08/25 01:22:12;;;;;;;;;;;23.80;70.30;;;;;;10235842;28;93764;-62
2023/08/25 01:27:14;;;;;;;;;;;23.80;70.10;;;;;;10231632;28;93434;-62
2023/08/25 01:32:16;;;;;;;;;;;23.80;70.10;;;;;;10233962;28;91922;-63
2023/08/25 01:37:29;;;;;;;;;;;23.80;70.10;;;;;;10221439;28;94647;-62
2023/08/25 01:42:32;;;;;;;;;;;23.80;70.10;;;;;;10244502;28;93501;-62
2023/08/25 01:47:34;;;;;;;;;;;23.80;70.10;;;;;;10227109;28;96561;-62
2023/08/25 01:52:36;;;;;;;;;;;23.80;70.20;;;;;;10218182;28;93629;-61
2023/08/25 01:57:38;;;;;;;;;;;23.80;70.20;;;;;;10227886;28;94290;-62
2023/08/25 02:02:41;;;;;;;;;;;23.80;70.10;;;;;;10232770;28;94014;-62
2023/08/25 02:07:42;;;;;;;;;;;23.80;70.10;;;;;;10224274;28;92996;-61
2023/08/25 02:12:44;;;;;;;;;;;23.80;70.00;;;;;;10230006;28;94393;-62
2023/08/25 02:17:46;;;;;;;;;;;23.70;70.10;;;;;;10218036;28;93089;-62
2023/08/25 02:22:49;;;;;;;;;;;23.70;70.10;;;;;;10227038;28;92583;-62
2023/08/25 02:27:51;;;;;;;;;;;23.70;70.20;;;;;;10218328;28;93463;-62
2023/08/25 02:32:54;;;;;;;;;;;23.70;70.20;;;;;;10229316;28;94638;-62
2023/08/25 02:37:58;;;;;;;;;;;23.70;70.30;;;;;;10223460;28;95879;-62
2023/08/25 02:43:02;;;;;;;;;;;23.70;70.40;;;;;;10235643;28;93556;-62
2023/08/25 02:48:06;;;;;;;;;;;23.60;70.30;;;;;;10233864;28;94478;-62
2023/08/25 02:53:07;;;;;;;;;;;23.60;70.40;;;;;;10226845;28;94418;-62
2023/08/25 02:58:12;;;;;;;;;;;23.60;70.30;;;;;;10229067;28;94089;-62
2023/08/25 03:03:14;;;;;;;;;;;23.60;70.40;;;;;;10233014;28;93559;-62
2023/08/25 03:08:18;;;;;;;;;;;23.60;70.50;;;;;;10228068;28;94077;-62
2023/08/25 03:13:21;;;;;;;;;;;23.60;70.50;;;;;;10254089;28;93705;-61
2023/08/25 03:18:28;;;;;;;;;;;23.60;70.50;;;;;;10238700;28;92541;-62
2023/08/25 03:23:31;;;;;;;;;;;23.60;70.50;;;;;;10237169;28;94485;-62
2023/08/25 03:28:32;;;;;;;;;;;23.60;70.60;;;;;;10235789;28;95797;-62
2023/08/25 03:33:34;;;;;;;;;;;23.60;70.60;;;;;;10231151;28;94233;-62
2023/08/25 03:38:36;;;;;;;;;;;23.50;70.60;;;;;;10229732;28;93292;-62
2023/08/25 03:43:37;;;;;;;;;;;23.50;70.70;;;;;;10234462;28;93502;-62
2023/08/25 03:48:41;;;;;;;;;;;23.50;70.60;;;;;;10229810;28;93876;-62
2023/08/25 03:53:43;;;;;;;;;;;23.50;70.90;;;;;;10228283;28;93604;-62
2023/08/25 03:58:45;;;;;;;;;;;23.50;71.00;;;;;;10234978;28;93428;-61
2023/08/25 04:03:47;;;;;;;;;;;23.40;71.00;;;;;;10237921;28;93041;-61
2023/08/25 04:08:50;;;;;;;;;;;23.40;70.90;;;;;;10236298;28;94945;-62
2023/08/25 04:13:51;;;;;;;;;;;23.40;70.70;;;;;;10235006;28;94371;-62
2023/08/25 04:18:53;;;;;;;;;;;23.40;70.90;;;;;;10219911;28;95794;-62
2023/08/25 04:23:55;;;;;;;;;;;23.40;70.90;;;;;;10223938;28;93456;-62
2023/08/25 04:28:57;;;;;;;;;;;23.40;71.00;;;;;;10230586;28;93478;-62
2023/08/25 04:33:59;;;;;;;;;;;23.40;71.00;;;;;;10235637;28;93724;-63
2023/08/25 04:39:00;;;;;;;;;;;23.40;71.00;;;;;;10230441;28;93415;-62
2023/08/25 04:44:02;;;;;;;;;;;23.40;71.00;;;;;;10210998;28;93846;-62
2023/08/25 04:49:04;;;;;;;;;;;23.40;71.00;;;;;;10640467;22;95692;-47
2023/08/25 04:54:06;;;;;;;;;;;23.40;71.00;;;;;;10157129;28;92769;-51
2023/08/25 04:59:08;;;;;;;;;;;23.40;71.00;;;;;;10144593;28;93494;-50
2023/08/25 05:04:11;;;;;;;;;;;23.40;71.00;;;;;;10153989;28;93946;-51
2023/08/25 05:09:13;;;;;;;;;;;23.40;70.80;;;;;;10152396;28;96877;-51
2023/08/25 05:14:14;;;;;;;;;;;23.40;70.70;;;;;;10154486;28;93478;-50
2023/08/25 05:19:16;;;;;;;;;;;23.40;70.70;;;;;;10156031;28;93482;-52
2023/08/25 05:24:22;;;;;;;;;;;23.40;70.60;;;;;;10156364;28;93513;-52
2023/08/25 05:29:25;;;;;;;;;;;23.50;70.70;;;;;;10155270;28;93106;-51
2023/08/25 05:34:27;;;;;;;;;;;23.50;70.80;;;;;;10153334;28;93324;-49
2023/08/25 05:39:29;;;;;;;;;;;23.50;70.60;;;;;;10137828;28;93483;-49
2023/08/25 05:44:31;;;;;;;;;;;23.50;70.80;;;;;;10154979;28;93073;-48
2023/08/25 05:49:33;;;;;;;;;;;23.50;70.80;;;;;;10150653;28;93398;-47
2023/08/25 05:54:35;;;;;;;;;;;23.50;70.90;;;;;;10158154;28;94294;-52
2023/08/25 05:59:36;;;;;;;;;;;23.50;70.90;;;;;;10156255;28;95575;-49
2023/08/25 06:04:38;;;;;;;;;;;23.50;70.80;;;;;;10162284;28;93531;-51
2023/08/25 06:09:43;;;;;;;;;;;23.50;70.80;;;;;;10158048;28;94295;-50
2023/08/25 06:14:44;;;;;;;;;;;23.50;70.80;;;;;;10158744;28;94616;-46
2023/08/25 06:19:46;;;;;;;;;;;23.50;70.70;;;;;;10157515;28;93500;-50
2023/08/25 06:24:48;;;;;;;;;;;23.50;70.80;;;;;;10160325;28;93146;-51
2023/08/25 06:29:50;;;;;;;;;;;23.50;70.70;;;;;;10157135;28;93461;-47
2023/08/25 06:34:53;;;;;;;;;;;23.50;70.80;;;;;;10158127;28;92656;-48
2023/08/25 06:39:55;;;;;;;;;;;23.50;70.60;;;;;;10155787;28;94448;-50
2023/08/25 06:44:57;;;;;;;;;;;23.50;70.50;;;;;;10154082;28;94615;-47
2023/08/25 06:49:59;;;;;;;;;;;23.50;70.60;;;;;;10120159;28;95978;-49
2023/08/25 06:55:01;;;;;;;;;;;23.50;70.80;;;;;;10149317;28;94065;-46
2023/08/25 07:00:05;;;;;;;;;;;23.50;70.90;;;;;;10143096;28;93110;-51
2023/08/25 07:05:07;;;;;;;;;;;23.50;71.40;;;;;;10143715;28;94461;-52
2023/08/25 07:10:12;;;;;;;;;;;23.60;71.70;;;;;;10145122;28;93967;-50
2023/08/25 07:15:14;;;;;;;;;;;23.60;71.10;;;;;;10149716;28;94725;-46
2023/08/25 07:20:16;;;;;;;;;;;23.60;71.00;;;;;;10153202;28;93465;-47
2023/08/25 07:25:18;;;;;;;;;;;23.60;71.00;;;;;;10153532;28;93464;-47
2023/08/25 07:30:19;;;;;;;;;;;23.60;70.80;;;;;;10153325;28;93371;-43
2023/08/25 07:35:21;;;;;;;;;;;23.70;70.80;;;;;;10151625;28;93715;-44
2023/08/25 07:40:23;;;;;;;;;;;23.70;71.10;;;;;;10154552;28;97700;-45
2023/08/25 07:45:25;;;;;;;;;;;23.70;70.80;;;;;;10155569;28;93462;-46
2023/08/25 07:50:27;;;;;;;;;;;23.70;71.90;;;;;;10147554;28;94481;-46
2023/08/25 07:55:29;;;;;;;;;;;23.70;70.80;;;;;;10150242;28;94842;-44
2023/08/25 08:00:32;;;;;;;;;;;23.70;70.80;;;;;;10155242;28;94723;-46
2023/08/25 08:05:34;;;;;;;;;;;23.70;70.80;;;;;;10153250;28;94361;-47
2023/08/25 08:10:37;;;;;;;;;;;23.70;70.80;;;;;;10150531;28;93483;-45
2023/08/25 08:15:39;;;;;;;;;;;23.70;71.00;;;;;;10153064;28;93821;-44
2023/08/25 08:20:43;;;;;;;;;;;23.70;70.70;;;;;;10149457;28;93412;-48
2023/08/25 08:25:44;;;;;;;;;;;23.70;70.80;;;;;;10154797;28;94927;-51
2023/08/25 08:30:46;;;;;;;;;;;23.70;70.80;;;;;;10154215;28;97010;-47
2023/08/25 08:35:50;;;;;;;;;;;23.70;70.80;;;;;;10154365;28;94298;-50
2023/08/25 08:40:52;;;;;;;;;;;23.70;70.80;;;;;;10154650;28;93507;-44
2023/08/25 08:45:54;;;;;;;;;;;23.70;70.70;;;;;;10150870;28;94447;-45
2023/08/25 08:50:56;;;;;;;;;;;23.70;70.80;;;;;;10154820;28;94460;-44
2023/08/25 08:55:58;;;;;;;;;;;23.70;70.70;;;;;;10155299;28;93567;-50
2023/08/25 09:01:01;;;;;;;;;;;23.70;70.60;;;;;;10159512;28;94461;-45
2023/08/25 09:06:03;;;;;;;;;;;23.70;70.70;;;;;;10153840;28;92940;-49
2023/08/25 09:11:05;;;;;;;;;;;23.70;70.70;;;;;;10155602;28;94176;-49
2023/08/25 09:16:12;;;;;;;;;;;23.70;70.90;;;;;;10148034;28;94913;-44
2023/08/25 09:21:15;;;;;;;;;;;23.70;71.00;;;;;;10151157;28;96673;-61
2023/08/25 09:26:17;;;;;;;;;;;23.70;70.90;;;;;;10148603;28;93278;-45
2023/08/25 09:31:20;;;;;;;;;;;23.70;71.00;;;;;;10154538;28;95230;-49
2023/08/25 09:36:22;;;;;;;;;;;23.70;71.10;;;;;;10153801;28;93480;-47
2023/08/25 09:41:28;;;;;;;;;;;23.70;71.10;;;;;;10152647;28;93793;-46
2023/08/25 09:46:31;;;;;;;;;;;23.70;71.00;;;;;;10152929;28;94360;-47
2023/08/25 09:51:37;;;;;;;;;;;23.70;71.20;;;;;;10152055;28;93948;-45
2023/08/25 09:56:40;;;;;;;;;;;23.70;71.30;;;;;;10154317;28;93792;-45
2023/08/25 10:01:42;;;;;;;;;;;23.70;71.20;;;;;;10146921;28;93532;-48
2023/08/25 10:06:44;;;;;;;;;;;23.70;71.20;;;;;;10135757;28;94407;-46
2023/08/25 10:11:49;;;;;;;;;;;23.70;71.20;;;;;;10146986;28;96336;-49
2023/08/25 10:16:52;;;;;;;;;;;23.70;71.20;;;;;;10144696;28;93549;-47
2023/08/25 10:21:55;;;;;;;;;;;23.70;71.20;;;;;;10140335;28;93843;-47
2023/08/25 10:26:56;;;;;;;;;;;23.70;71.20;;;;;;10150198;28;94807;-55
2023/08/25 10:31:59;;;;;;;;;;;23.70;71.20;;;;;;10133208;28;93853;-54
2023/08/25 10:37:11;;;;;;;;;;;23.60;71.10;;;;;;10145857;28;93644;-43
2023/08/25 10:42:13;;;;;;;;;;;23.60;71.10;;;;;;10151364;28;93640;-60
2023/08/25 10:47:18;;;;;;;;;;;23.60;71.20;;;;;;10158106;28;92995;-51
2023/08/25 10:52:20;;;;;;;;;;;23.60;71.30;;;;;;10150116;28;93671;-46
2023/08/25 10:57:25;;;;;;;;;;;23.60;71.10;;;;;;10159768;28;94712;-50
2023/08/25 11:02:35;;;;;;;;;;;23.60;72.50;;;;;;10155096;28;96207;-52
2023/08/25 11:07:41;;;;;;;;;;;23.70;72.80;;;;;;10156183;28;92740;-46
2023/08/25 11:12:43;;;;;;;;;;;23.70;73.60;;;;;;10139892;28;93455;-45
2023/08/25 11:17:56;;;;;;;;;;;23.80;72.80;;;;;;10153532;28;94483;-48
2023/08/25 11:23:00;;;;;;;;;;;23.80;72.60;;;;;;10152691;28;93688;-46
2023/08/25 11:28:23;;;;;;;;;;;23.80;72.70;;;;;;10154314;28;94586;-49
2023/08/25 11:33:25;;;;;;;;;;;23.80;72.80;;;;;;10152392;28;94468;-49
2023/08/25 11:38:31;;;;;;;;;;;23.80;72.90;;;;;;10156108;28;92766;-49
2023/08/25 11:43:33;;;;;;;;;;;23.80;73.00;;;;;;10154590;28;93456;-49
2023/08/25 11:48:35;;;;;;;;;;;23.80;73.00;;;;;;10155598;28;94276;-47
2023/08/25 11:53:36;;;;;;;;;;;23.80;73.00;;;;;;10150804;28;97121;-46
2023/08/25 11:58:38;;;;;;;;;;;23.80;72.90;;;;;;10154005;28;94526;-49
2023/08/25 12:03:44;;;;;;;;;;;23.80;72.90;;;;;;10154535;28;95253;-47
2023/08/25 12:08:48;;;;;;;;;;;23.70;72.80;;;;;;10121954;28;93410;-47
2023/08/25 12:13:49;;;;;;;;;;;23.80;72.80;;;;;;10154371;28;93518;-51
2023/08/25 12:18:52;;;;;;;;;;;23.80;72.80;;;;;;10149374;28;93552;-43
2023/08/25 12:23:53;;;;;;;;;;;23.80;72.80;;;;;;10151132;28;94631;-46
2023/08/25 12:28:56;;;;;;;;;;;23.80;72.80;;;;;;10154551;28;92711;-47
2023/08/25 12:33:58;;;;;;;;;;;23.80;72.80;;;;;;10155410;28;93848;-49
2023/08/25 12:39:00;;;;;;;;;;;23.80;72.80;;;;;;10154776;28;93424;-46
2023/08/25 12:44:03;;;;;;;;;;;23.80;72.80;;;;;;10152110;28;96847;-44
2023/08/25 12:49:05;;;;;;;;;;;23.80;72.80;;;;;;10153531;28;94620;-48
2023/08/25 12:54:14;;;;;;;;;;;23.80;72.80;;;;;;10136380;28;93480;-50
2023/08/25 12:59:15;;;;;;;;;;;23.80;72.80;;;;;;10154280;28;94437;-48
2023/08/25 13:04:17;;;;;;;;;;;23.80;72.70;;;;;;10146813;28;94510;-48
2023/08/25 13:09:20;;;;;;;;;;;23.90;72.80;;;;;;10137483;28;95313;-45
2023/08/25 13:14:23;;;;;;;;;;;23.90;72.70;;;;;;10149866;28;94495;-46
2023/08/25 13:19:24;;;;;;;;;;;23.90;72.70;;;;;;10156370;28;93228;-44
2023/08/25 13:24:26;;;;;;;;;;;23.90;72.70;;;;;;10152483;28;94550;-47
2023/08/25 13:29:28;;;;;;;;;;;24.00;72.80;;;;;;10151730;28;94357;-48
2023/08/25 13:34:30;;;;;;;;;;;23.90;72.70;;;;;;10151623;28;96823;-49
2023/08/25 13:39:33;;;;;;;;;;;23.90;72.70;;;;;;10135207;28;93521;-47
2023/08/25 13:44:38;;;;;;;;;;;24.00;72.60;;;;;;10150875;28;93633;-48
2023/08/25 13:49:42;;;;;;;;;;;24.00;72.70;;;;;;10140861;28;93707;-48
2023/08/25 13:54:43;;;;;;;;;;;24.00;72.50;;;;;;10153428;28;94468;-55
2023/08/25 13:59:46;;;;;;;;;;;23.90;72.50;;;;;;10151841;28;94623;-46
2023/08/25 14:04:47;;;;;;;;;;;23.90;72.50;;;;;;10152771;28;94384;-48
2023/08/25 14:09:49;;;;;;;;;;;24.00;72.70;;;;;;10151130;28;93301;-44
2023/08/25 14:14:51;;;;;;;;;;;24.00;72.50;;;;;;10151572;28;93670;-46
2023/08/25 14:19:53;;;;;;;;;;;23.90;72.10;;;;;;10160543;28;94809;-44
2023/08/25 14:24:54;;;;;;;;;;;23.90;72.30;;;;;;10153741;28;96315;-46
2023/08/25 14:29:56;;;;;;;;;;;24.00;72.00;;;;;;10136239;28;93511;-46
2023/08/25 14:35:03;;;;;;;;;;;23.90;72.00;;;;;;10155521;28;94814;-47
2023/08/25 14:40:06;;;;;;;;;;;23.90;71.90;;;;;;10163449;28;93443;-48
2023/08/25 14:45:07;;;;;;;;;;;24.00;72.10;;;;;;10156747;28;94594;-46
2023/08/25 14:50:09;;;;;;;;;;;24.00;72.10;;;;;;10153070;28;93607;-47
2023/08/25 14:55:12;;;;;;;;;;;23.90;72.10;;;;;;10153669;28;93424;-51
2023/08/25 15:00:14;;;;;;;;;;;24.00;72.00;;;;;;10156009;28;93631;-50
2023/08/25 15:05:16;;;;;;;;;;;24.00;72.30;;;;;;10148684;28;93978;-50
2023/08/25 15:10:18;;;;;;;;;;;24.00;72.10;;;;;;10159532;28;93447;-47
2023/08/25 15:15:20;;;;;;;;;;;24.00;72.20;;;;;;10155256;28;95688;-48
2023/08/25 15:20:22;;;;;;;;;;;24.00;72.00;;;;;;10146890;28;93444;-47
2023/08/25 15:25:23;;;;;;;;;;;24.00;72.00;;;;;;10162045;28;94547;-48
2023/08/25 15:30:25;;;;;;;;;;;24.00;72.00;;;;;;10156916;28;94418;-50
2023/08/25 15:35:30;;;;;;;;;;;24.00;72.00;;;;;;10157859;28;94586;-47
2023/08/25 15:40:32;;;;;;;;;;;24.00;71.90;;;;;;10157649;28;94771;-49
2023/08/25 15:45:34;;;;;;;;;;;24.00;71.80;;;;;;10158964;28;93641;-50
2023/08/25 15:50:36;;;;;;;;;;;24.00;71.80;;;;;;10157848;28;93661;-48
2023/08/25 15:55:37;;;;;;;;;;;24.00;71.70;;;;;;10146811;28;94534;-47
2023/08/25 16:00:40;;;;;;;;;;;24.00;71.60;;;;;;10156860;28;94397;-45
2023/08/25 16:05:43;;;;;;;;;;;24.00;71.60;;;;;;10154788;28;97088;-49
2023/08/25 16:10:45;;;;;;;;;;;24.00;71.40;;;;;;10157136;28;94046;-49
2023/08/25 16:15:48;;;;;;;;;;;24.00;71.40;;;;;;10157382;28;93549;-46
2023/08/25 16:20:50;;;;;;;;;;;24.00;71.40;;;;;;10126036;28;94487;-49
2023/08/25 16:25:52;;;;;;;;;;;24.00;71.40;;;;;;10156196;28;94352;-46
2023/08/25 16:30:54;;;;;;;;;;;24.00;71.40;;;;;;10156926;28;94750;-49
2023/08/25 16:35:56;;;;;;;;;;;24.00;71.40;;;;;;10155490;28;94414;-51
2023/08/25 16:40:57;;;;;;;;;;;24.00;71.40;;;;;;10155244;28;93322;-49
2023/08/25 16:45:59;;;;;;;;;;;24.00;71.40;;;;;;10148533;28;94393;-48
2023/08/25 16:51:01;;;;;;;;;;;24.00;71.40;;;;;;10153715;28;93563;-47
2023/08/25 16:56:03;;;;;;;;;;;24.00;71.40;;;;;;10153157;28;97480;-47
2023/08/25 17:01:05;;;;;;;;;;;24.00;71.40;;;;;;10154268;28;93858;-50
2023/08/25 17:06:06;;;;;;;;;;;24.00;71.40;;;;;;10155698;28;94969;-47
2023/08/25 17:11:08;;;;;;;;;;;24.00;71.40;;;;;;10156716;28;93475;-47
2023/08/25 17:16:13;;;;;;;;;;;24.00;71.30;;;;;;10154640;28;93435;-49
2023/08/25 17:21:17;;;;;;;;;;;24.00;71.30;;;;;;10153684;28;94461;-47
2023/08/25 17:26:19;;;;;;;;;;;24.00;71.20;;;;;;10154198;28;94398;-44
2023/08/25 17:31:21;;;;;;;;;;;24.00;71.10;;;;;;10155567;28;93244;-45
2023/08/25 17:36:22;;;;;;;;;;;24.00;71.10;;;;;;10153521;28;92582;-46
2023/08/25 17:41:24;;;;;;;;;;;24.00;71.10;;;;;;10153581;28;93402;-46
2023/08/25 17:46:26;;;;;;;;;;;24.00;71.20;;;;;;10152689;28;96840;-48
2023/08/25 17:51:28;;;;;;;;;;;23.90;71.10;;;;;;10160644;28;93968;-46
2023/08/25 17:56:29;;;;;;;;;;;23.90;71.00;;;;;;10167121;28;94521;-45
2023/08/25 18:01:31;;;;;;;;;;;23.90;71.00;;;;;;10155438;28;93481;-47
2023/08/25 18:06:34;;;;;;;;;;;23.90;71.00;;;;;;10161316;28;94505;-47
2023/08/25 18:11:36;;;;;;;;;;;23.90;70.90;;;;;;10135029;28;94448;-48
2023/08/25 18:16:38;;;;;;;;;;;23.90;70.90;;;;;;10160292;28;94607;-47
2023/08/25 18:21:39;;;;;;;;;;;23.90;70.80;;;;;;10159582;28;92655;-51
2023/08/25 18:26:41;;;;;;;;;;;23.90;70.70;;;;;;10159819;28;96118;-47
2023/08/25 18:31:45;;;;;;;;;;;23.90;70.70;;;;;;10161485;28;93743;-46
2023/08/25 18:36:47;;;;;;;;;;;23.90;70.70;;;;;;10157165;28;96881;-46
2023/08/25 18:41:48;;;;;;;;;;;23.90;70.70;;;;;;10149429;28;94467;-50
2023/08/25 18:46:51;;;;;;;;;;;23.90;70.60;;;;;;10157265;28;94055;-49
2023/08/25 18:51:53;;;;;;;;;;;23.90;70.50;;;;;;10159084;28;93482;-51
2023/08/25 18:56:54;;;;;;;;;;;23.90;70.50;;;;;;10159685;28;94093;-51
2023/08/25 19:01:56;;;;;;;;;;;23.90;70.50;;;;;;10157897;28;93851;-57
2023/08/25 19:06:58;;;;;;;;;;;23.90;70.40;;;;;;10160190;28;93559;-50
2023/08/25 19:12:00;;;;;;;;;;;23.90;70.40;;;;;;10158728;28;93077;-49
2023/08/25 19:17:01;;;;;;;;;;;23.80;70.30;;;;;;10156625;28;94833;-46
2023/08/25 19:22:03;;;;;;;;;;;23.90;70.30;;;;;;10158547;28;94454;-46
2023/08/25 19:27:05;;;;;;;;;;;23.80;70.20;;;;;;10156903;28;95928;-47
2023/08/25 19:32:07;;;;;;;;;;;23.80;70.20;;;;;;10157933;28;94229;-46
2023/08/25 19:37:08;;;;;;;;;;;23.80;70.20;;;;;;10157066;28;94744;-49
2023/08/25 19:42:11;;;;;;;;;;;23.80;70.20;;;;;;10156995;28;94084;-50
2023/08/25 19:47:13;;;;;;;;;;;23.80;70.10;;;;;;10141509;28;93519;-46
2023/08/25 19:52:14;;;;;;;;;;;23.80;70.10;;;;;;10170913;28;94435;-46
2023/08/25 19:57:16;;;;;;;;;;;23.80;70.10;;;;;;10155941;28;93833;-47
2023/08/25 20:02:18;;;;;;;;;;;23.80;70.00;;;;;;10157538;28;92822;-47
2023/08/25 20:07:19;;;;;;;;;;;23.80;70.00;;;;;;10157203;28;94119;-49
2023/08/25 20:12:21;;;;;;;;;;;23.80;69.90;;;;;;10156026;28;93183;-48
2023/08/25 20:17:23;;;;;;;;;;;23.80;69.90;;;;;;10154409;28;96842;-45
2023/08/25 20:22:24;;;;;;;;;;;23.80;69.80;;;;;;10150455;28;94395;-45
2023/08/25 20:27:26;;;;;;;;;;;23.80;69.80;;;;;;10137792;28;93438;-46
2023/08/25 20:32:28;;;;;;;;;;;23.80;69.70;;;;;;10156049;28;94589;-48
2023/08/25 20:37:30;;;;;;;;;;;23.80;69.60;;;;;;10154773;28;93414;-48
2023/08/25 20:42:31;;;;;;;;;;;23.80;69.50;;;;;;10158482;28;94850;-46
2023/08/25 20:47:33;;;;;;;;;;;23.80;69.50;;;;;;10143549;28;94563;-45
2023/08/25 20:52:35;;;;;;;;;;;23.80;69.50;;;;;;10157311;28;93928;-48
2023/08/25 20:57:37;;;;;;;;;;;23.80;69.40;;;;;;10155632;28;94670;-50
2023/08/25 21:02:40;;;;;;;;;;;23.80;69.30;;;;;;10155982;28;93675;-51
2023/08/25 21:07:43;;;;;;;;;;;23.80;69.10;;;;;;10152781;28;97063;-49
2023/08/25 21:12:45;;;;;;;;;;;23.80;69.10;;;;;;10155453;28;94498;-48
2023/08/25 21:17:46;;;;;;;;;;;23.80;69.10;;;;;;10153187;28;93693;-46
2023/08/25 21:22:48;;;;;;;;;;;23.70;69.00;;;;;;10154373;28;93482;-48
2023/08/25 21:27:52;;;;;;;;;;;23.70;68.90;;;;;;10155592;28;93455;-45
2023/08/25 21:32:54;;;;;;;;;;;23.70;69.90;;;;;;10151582;28;93688;-50
2023/08/25 21:37:56;;;;;;;;;;;23.70;68.80;;;;;;10154110;28;94643;-48
2023/08/25 21:43:02;;;;;;;;;;;23.70;68.80;;;;;;10154566;28;92797;-48
2023/08/25 21:48:04;;;;;;;;;;;23.70;68.70;;;;;;10154599;28;95352;-45
2023/08/25 21:53:06;;;;;;;;;;;23.70;68.60;;;;;;10135514;28;94785;-45
2023/08/25 21:58:08;;;;;;;;;;;23.70;68.50;;;;;;10163612;28;95869;-45
2023/08/25 22:03:13;;;;;;;;;;;23.70;68.50;;;;;;10151485;28;94939;-44
2023/08/25 22:08:15;;;;;;;;;;;23.70;68.40;;;;;;10144758;28;93954;-46
2023/08/25 22:13:17;;;;;;;;;;;23.60;68.20;;;;;;10153521;28;94500;-44
2023/08/25 22:18:18;;;;;;;;;;;23.60;68.30;;;;;;10152661;28;93824;-45
2023/08/25 22:23:20;;;;;;;;;;;23.60;68.20;;;;;;10151189;28;93739;-50
2023/08/25 22:28:22;;;;;;;;;;;23.60;68.00;;;;;;10155079;28;95105;-47
2023/08/25 22:33:23;;;;;;;;;;;23.60;68.10;;;;;;10155098;28;94002;-45
2023/08/25 22:38:28;;;;;;;;;;;23.60;68.00;;;;;;10147916;28;95471;-47
2023/08/25 22:43:30;;;;;;;;;;;23.60;68.00;;;;;;10140712;28;93408;-46
2023/08/25 22:48:32;;;;;;;;;;;23.60;67.80;;;;;;10142490;28;96816;-47
2023/08/25 22:53:34;;;;;;;;;;;23.60;67.80;;;;;;10159517;28;94692;-51
2023/08/25 22:58:36;;;;;;;;;;;23.60;67.80;;;;;;10139936;28;94016;-48
2023/08/25 23:03:38;;;;;;;;;;;23.60;67.60;;;;;;10155735;28;94590;-50
2023/08/25 23:08:43;;;;;;;;;;;23.50;67.60;;;;;;10160314;28;93384;-47
2023/08/25 23:13:45;;;;;;;;;;;23.50;67.50;;;;;;10140579;28;94031;-47
2023/08/25 23:18:46;;;;;;;;;;;23.50;67.50;;;;;;10159333;28;95035;-46
2023/08/25 23:23:50;;;;;;;;;;;23.50;68.30;;;;;;10156971;28;93187;-45
2023/08/25 23:28:51;;;;;;;;;;;23.50;67.30;;;;;;10158872;28;93696;-45
2023/08/25 23:33:53;;;;;;;;;;;23.50;67.40;;;;;;10142085;28;94456;-45
2023/08/25 23:38:55;;;;;;;;;;;23.50;67.30;;;;;;10137724;28;97315;-48
2023/08/25 23:43:56;;;;;;;;;;;23.50;67.20;;;;;;10168841;28;93504;-50
2023/08/25 23:48:59;;;;;;;;;;;23.50;67.10;;;;;;10157836;28;94460;-46
2023/08/25 23:54:00;;;;;;;;;;;23.50;67.10;;;;;;10157280;28;93532;-48
2023/08/25 23:59:02;;;;;;;;;;;23.50;67.10;;;;;;10157259;28;93484;-48
